sensor_id;sensor_type;location;lat;lon;timestamp;P1;durP1;ratioP1;P2;durP2;ratioP2
10299;SDS011;5195;48.562;9.192;2022-08-20T00:00:03;4.67;;;4.37;;
10299;SDS011;5195;48.562;9.192;2022-08-20T00:02:38;4.90;;;4.50;;
10299;SDS011;5195;48.562;9.192;2022-08-20T00:05:13;3.80;;;3.60;;
10299;SDS011;5195;48.562;9.192;2022-08-20T00:07:48;4.27;;;4.07;;
10299;SDS011;5195;48.562;9.192;2022-08-20T00:10:24;4.70;;;4.40;;
10299;SDS011;5195;48.562;9.192;2022-08-20T00:12:59;4.75;;;4.45;;
10299;SDS011;5195;48.562;9.192;2022-08-20T00:15:35;4.60;;;4.40;;
10299;SDS011;5195;48.562;9.192;2022-08-20T00:18:10;4.20;;;4.00;;
10299;SDS011;5195;48.562;9.192;2022-08-20T00:20:46;4.23;;;4.03;;
10299;SDS011;5195;48.562;9.192;2022-08-20T00:23:22;4.97;;;4.50;;
10299;SDS011;5195;48.562;9.192;2022-08-20T00:25:57;4.87;;;4.60;;
10299;SDS011;5195;48.562;9.192;2022-08-20T00:28:33;4.50;;;4.30;;
10299;SDS011;5195;48.562;9.192;2022-08-20T00:31:09;4.17;;;3.97;;
10299;SDS011;5195;48.562;9.192;2022-08-20T00:33:44;4.67;;;4.27;;
10299;SDS011;5195;48.562;9.192;2022-08-20T00:36:21;4.60;;;4.30;;
10299;SDS011;5195;48.562;9.192;2022-08-20T00:38:56;4.23;;;3.93;;
10299;SDS011;5195;48.562;9.192;2022-08-20T00:41:31;4.00;;;3.80;;
10299;SDS011;5195;48.562;9.192;2022-08-20T00:44:10;4.30;;;3.90;;
10299;SDS011;5195;48.562;9.192;2022-08-20T00:46:50;4.43;;;4.22;;
10299;SDS011;5195;48.562;9.192;2022-08-20T00:49:27;4.70;;;4.40;;
10299;SDS011;5195;48.562;9.192;2022-08-20T00:54:44;3.97;;;3.77;;
10299;SDS011;5195;48.562;9.192;2022-08-20T01:00:03;4.60;;;4.40;;
10299;SDS011;5195;48.562;9.192;2022-08-20T01:02:38;4.77;;;4.47;;
10299;SDS011;5195;48.562;9.192;2022-08-20T01:05:13;4.60;;;4.30;;
10299;SDS011;5195;48.562;9.192;2022-08-20T01:07:49;5.00;;;4.53;;
10299;SDS011;5195;48.562;9.192;2022-08-20T01:10:30;5.00;;;4.70;;
10299;SDS011;5195;48.562;9.192;2022-08-20T01:13:08;4.70;;;4.50;;
10299;SDS011;5195;48.562;9.192;2022-08-20T01:15:44;4.53;;;4.23;;
10299;SDS011;5195;48.562;9.192;2022-08-20T01:18:20;5.17;;;4.77;;
10299;SDS011;5195;48.562;9.192;2022-08-20T01:20:57;5.10;;;4.80;;
10299;SDS011;5195;48.562;9.192;2022-08-20T01:23:41;5.03;;;4.77;;
10299;SDS011;5195;48.562;9.192;2022-08-20T01:26:41;4.73;;;4.30;;
10299;SDS011;5195;48.562;9.192;2022-08-20T01:29:17;5.10;;;4.90;;
10299;SDS011;5195;48.562;9.192;2022-08-20T01:31:52;5.50;;;5.10;;
10299;SDS011;5195;48.562;9.192;2022-08-20T01:34:28;5.40;;;5.00;;
10299;SDS011;5195;48.562;9.192;2022-08-20T01:37:03;5.53;;;5.23;;
10299;SDS011;5195;48.562;9.192;2022-08-20T01:39:40;5.17;;;4.83;;
10299;SDS011;5195;48.562;9.192;2022-08-20T01:42:30;4.93;;;4.63;;
10299;SDS011;5195;48.562;9.192;2022-08-20T01:45:05;5.07;;;4.67;;
10299;SDS011;5195;48.562;9.192;2022-08-20T01:47:42;4.20;;;4.00;;
10299;SDS011;5195;48.562;9.192;2022-08-20T01:50:20;5.80;;;5.33;;
10299;SDS011;5195;48.562;9.192;2022-08-20T01:52:58;5.37;;;4.70;;
10299;SDS011;5195;48.562;9.192;2022-08-20T01:55:32;4.90;;;4.50;;
10299;SDS011;5195;48.562;9.192;2022-08-20T01:58:08;4.50;;;4.20;;
10299;SDS011;5195;48.562;9.192;2022-08-20T02:00:45;5.13;;;4.83;;
10299;SDS011;5195;48.562;9.192;2022-08-20T02:03:22;4.70;;;4.40;;
10299;SDS011;5195;48.562;9.192;2022-08-20T02:05:58;5.77;;;5.37;;
10299;SDS011;5195;48.562;9.192;2022-08-20T02:08:33;6.03;;;5.43;;
10299;SDS011;5195;48.562;9.192;2022-08-20T02:11:10;5.23;;;4.93;;
10299;SDS011;5195;48.562;9.192;2022-08-20T02:13:45;6.10;;;5.20;;
10299;SDS011;5195;48.562;9.192;2022-08-20T02:16:22;5.90;;;5.30;;
10299;SDS011;5195;48.562;9.192;2022-08-20T02:18:57;5.83;;;5.43;;
10299;SDS011;5195;48.562;9.192;2022-08-20T02:21:32;5.57;;;5.27;;
10299;SDS011;5195;48.562;9.192;2022-08-20T02:24:08;6.17;;;5.87;;
10299;SDS011;5195;48.562;9.192;2022-08-20T02:26:44;6.03;;;5.72;;
10299;SDS011;5195;48.562;9.192;2022-08-20T02:29:20;6.43;;;6.10;;
10299;SDS011;5195;48.562;9.192;2022-08-20T02:31:56;6.67;;;6.07;;
10299;SDS011;5195;48.562;9.192;2022-08-20T02:34:31;6.40;;;6.00;;
10299;SDS011;5195;48.562;9.192;2022-08-20T02:37:08;7.17;;;6.67;;
10299;SDS011;5195;48.562;9.192;2022-08-20T02:39:46;7.40;;;6.90;;
10299;SDS011;5195;48.562;9.192;2022-08-20T02:42:21;7.57;;;7.07;;
10299;SDS011;5195;48.562;9.192;2022-08-20T02:44:57;7.50;;;7.00;;
10299;SDS011;5195;48.562;9.192;2022-08-20T02:47:32;7.00;;;6.43;;
10299;SDS011;5195;48.562;9.192;2022-08-20T02:50:11;6.43;;;6.10;;
10299;SDS011;5195;48.562;9.192;2022-08-20T02:52:44;7.33;;;6.93;;
10299;SDS011;5195;48.562;9.192;2022-08-20T02:55:20;6.87;;;6.47;;
10299;SDS011;5195;48.562;9.192;2022-08-20T02:57:56;7.07;;;6.53;;
10299;SDS011;5195;48.562;9.192;2022-08-20T03:00:31;7.37;;;6.97;;
10299;SDS011;5195;48.562;9.192;2022-08-20T03:03:07;7.30;;;6.80;;
10299;SDS011;5195;48.562;9.192;2022-08-20T03:05:43;7.57;;;7.07;;
10299;SDS011;5195;48.562;9.192;2022-08-20T03:08:18;7.75;;;7.15;;
10299;SDS011;5195;48.562;9.192;2022-08-20T03:10:53;7.40;;;7.03;;
10299;SDS011;5195;48.562;9.192;2022-08-20T03:13:29;6.70;;;6.40;;
10299;SDS011;5195;48.562;9.192;2022-08-20T03:16:05;6.83;;;6.40;;
10299;SDS011;5195;48.562;9.192;2022-08-20T03:18:41;7.10;;;6.70;;
10299;SDS011;5195;48.562;9.192;2022-08-20T03:21:16;6.85;;;6.25;;
10299;SDS011;5195;48.562;9.192;2022-08-20T03:23:51;6.97;;;6.57;;
10299;SDS011;5195;48.562;9.192;2022-08-20T03:26:27;6.70;;;6.30;;
10299;SDS011;5195;48.562;9.192;2022-08-20T03:29:02;5.83;;;5.43;;
10299;SDS011;5195;48.562;9.192;2022-08-20T03:31:38;6.00;;;5.60;;
10299;SDS011;5195;48.562;9.192;2022-08-20T03:34:13;5.63;;;5.33;;
10299;SDS011;5195;48.562;9.192;2022-08-20T03:36:49;5.93;;;5.50;;
10299;SDS011;5195;48.562;9.192;2022-08-20T03:39:26;5.55;;;5.22;;
10299;SDS011;5195;48.562;9.192;2022-08-20T03:42:02;5.20;;;4.90;;
10299;SDS011;5195;48.562;9.192;2022-08-20T03:44:37;5.20;;;4.80;;
10299;SDS011;5195;48.562;9.192;2022-08-20T03:47:12;6.12;;;5.72;;
10299;SDS011;5195;48.562;9.192;2022-08-20T03:49:51;5.43;;;5.10;;
10299;SDS011;5195;48.562;9.192;2022-08-20T03:52:27;5.72;;;5.50;;
10299;SDS011;5195;48.562;9.192;2022-08-20T03:55:04;5.37;;;5.07;;
10299;SDS011;5195;48.562;9.192;2022-08-20T03:57:43;5.70;;;5.40;;
10299;SDS011;5195;48.562;9.192;2022-08-20T04:00:20;5.82;;;5.45;;
10299;SDS011;5195;48.562;9.192;2022-08-20T04:02:53;5.80;;;5.40;;
10299;SDS011;5195;48.562;9.192;2022-08-20T04:05:29;5.67;;;5.27;;
10299;SDS011;5195;48.562;9.192;2022-08-20T04:08:05;5.80;;;5.40;;
10299;SDS011;5195;48.562;9.192;2022-08-20T04:10:40;5.90;;;5.53;;
10299;SDS011;5195;48.562;9.192;2022-08-20T04:16:18;6.03;;;5.67;;
10299;SDS011;5195;48.562;9.192;2022-08-20T04:21:49;7.23;;;6.80;;
10299;SDS011;5195;48.562;9.192;2022-08-20T04:24:27;6.50;;;6.03;;
10299;SDS011;5195;48.562;9.192;2022-08-20T04:27:02;6.97;;;6.57;;
10299;SDS011;5195;48.562;9.192;2022-08-20T04:29:39;6.93;;;6.20;;
10299;SDS011;5195;48.562;9.192;2022-08-20T04:32:13;7.50;;;7.00;;
10299;SDS011;5195;48.562;9.192;2022-08-20T04:34:49;7.32;;;6.72;;
10299;SDS011;5195;48.562;9.192;2022-08-20T04:37:24;7.27;;;6.77;;
10299;SDS011;5195;48.562;9.192;2022-08-20T04:40:05;7.73;;;7.17;;
10299;SDS011;5195;48.562;9.192;2022-08-20T04:42:59;7.57;;;6.87;;
10299;SDS011;5195;48.562;9.192;2022-08-20T04:45:35;6.63;;;6.23;;
10299;SDS011;5195;48.562;9.192;2022-08-20T04:48:11;7.03;;;6.57;;
10299;SDS011;5195;48.562;9.192;2022-08-20T04:50:50;7.37;;;6.97;;
10299;SDS011;5195;48.562;9.192;2022-08-20T04:53:25;7.70;;;7.10;;
10299;SDS011;5195;48.562;9.192;2022-08-20T04:56:00;7.20;;;6.70;;
10299;SDS011;5195;48.562;9.192;2022-08-20T04:58:37;7.17;;;6.77;;
10299;SDS011;5195;48.562;9.192;2022-08-20T05:01:12;7.27;;;6.77;;
10299;SDS011;5195;48.562;9.192;2022-08-20T05:03:50;7.07;;;6.53;;
10299;SDS011;5195;48.562;9.192;2022-08-20T05:06:27;7.60;;;7.07;;
10299;SDS011;5195;48.562;9.192;2022-08-20T05:09:01;7.53;;;7.12;;
10299;SDS011;5195;48.562;9.192;2022-08-20T05:11:36;8.13;;;7.60;;
10299;SDS011;5195;48.562;9.192;2022-08-20T05:14:12;7.00;;;6.60;;
10299;SDS011;5195;48.562;9.192;2022-08-20T05:16:47;7.40;;;7.00;;
10299;SDS011;5195;48.562;9.192;2022-08-20T05:19:23;6.82;;;6.53;;
10299;SDS011;5195;48.562;9.192;2022-08-20T05:21:59;7.00;;;6.60;;
10299;SDS011;5195;48.562;9.192;2022-08-20T05:24:35;6.90;;;6.30;;
10299;SDS011;5195;48.562;9.192;2022-08-20T05:27:10;6.43;;;5.93;;
10299;SDS011;5195;48.562;9.192;2022-08-20T05:29:46;6.77;;;6.37;;
10299;SDS011;5195;48.562;9.192;2022-08-20T05:32:22;6.70;;;6.30;;
10299;SDS011;5195;48.562;9.192;2022-08-20T05:34:57;6.70;;;6.30;;
10299;SDS011;5195;48.562;9.192;2022-08-20T05:37:33;6.87;;;6.47;;
10299;SDS011;5195;48.562;9.192;2022-08-20T05:40:09;7.37;;;6.87;;
10299;SDS011;5195;48.562;9.192;2022-08-20T05:42:47;6.53;;;6.07;;
10299;SDS011;5195;48.562;9.192;2022-08-20T05:45:23;7.15;;;6.65;;
10299;SDS011;5195;48.562;9.192;2022-08-20T05:48:02;6.33;;;5.87;;
10299;SDS011;5195;48.562;9.192;2022-08-20T05:50:34;5.80;;;5.50;;
10299;SDS011;5195;48.562;9.192;2022-08-20T05:53:09;6.57;;;6.17;;
10299;SDS011;5195;48.562;9.192;2022-08-20T05:55:46;6.70;;;6.40;;
10299;SDS011;5195;48.562;9.192;2022-08-20T05:58:23;7.10;;;6.70;;
10299;SDS011;5195;48.562;9.192;2022-08-20T06:00:57;7.72;;;7.22;;
10299;SDS011;5195;48.562;9.192;2022-08-20T06:03:33;6.30;;;5.90;;
10299;SDS011;5195;48.562;9.192;2022-08-20T06:06:12;6.67;;;6.17;;
10299;SDS011;5195;48.562;9.192;2022-08-20T06:08:48;7.37;;;6.77;;
10299;SDS011;5195;48.562;9.192;2022-08-20T06:11:24;7.10;;;6.70;;
10299;SDS011;5195;48.562;9.192;2022-08-20T06:13:59;6.93;;;6.60;;
10299;SDS011;5195;48.562;9.192;2022-08-20T06:16:35;6.73;;;6.40;;
10299;SDS011;5195;48.562;9.192;2022-08-20T06:19:11;6.67;;;6.27;;
10299;SDS011;5195;48.562;9.192;2022-08-20T06:21:48;7.05;;;6.65;;
10299;SDS011;5195;48.562;9.192;2022-08-20T06:24:24;7.33;;;6.83;;
10299;SDS011;5195;48.562;9.192;2022-08-20T06:27:01;6.78;;;6.37;;
10299;SDS011;5195;48.562;9.192;2022-08-20T06:29:36;6.50;;;6.20;;
10299;SDS011;5195;48.562;9.192;2022-08-20T06:32:13;6.33;;;6.03;;
10299;SDS011;5195;48.562;9.192;2022-08-20T06:34:49;6.47;;;6.07;;
10299;SDS011;5195;48.562;9.192;2022-08-20T06:37:26;6.47;;;6.07;;
10299;SDS011;5195;48.562;9.192;2022-08-20T06:40:03;6.47;;;6.17;;
10299;SDS011;5195;48.562;9.192;2022-08-20T06:42:37;6.90;;;6.60;;
10299;SDS011;5195;48.562;9.192;2022-08-20T06:45:15;6.60;;;6.30;;
10299;SDS011;5195;48.562;9.192;2022-08-20T06:47:49;6.03;;;5.73;;
10299;SDS011;5195;48.562;9.192;2022-08-20T06:50:26;6.50;;;6.20;;
10299;SDS011;5195;48.562;9.192;2022-08-20T06:53:03;6.50;;;6.00;;
10299;SDS011;5195;48.562;9.192;2022-08-20T06:55:39;6.17;;;5.83;;
10299;SDS011;5195;48.562;9.192;2022-08-20T06:58:14;6.27;;;5.97;;
10299;SDS011;5195;48.562;9.192;2022-08-20T07:00:50;6.05;;;5.65;;
10299;SDS011;5195;48.562;9.192;2022-08-20T07:03:26;5.83;;;5.53;;
10299;SDS011;5195;48.562;9.192;2022-08-20T07:06:01;6.40;;;5.90;;
10299;SDS011;5195;48.562;9.192;2022-08-20T07:08:37;6.70;;;6.30;;
10299;SDS011;5195;48.562;9.192;2022-08-20T07:11:13;6.80;;;6.30;;
10299;SDS011;5195;48.562;9.192;2022-08-20T07:13:48;6.03;;;5.63;;
10299;SDS011;5195;48.562;9.192;2022-08-20T07:16:24;6.70;;;6.30;;
10299;SDS011;5195;48.562;9.192;2022-08-20T07:18:59;5.90;;;5.50;;
10299;SDS011;5195;48.562;9.192;2022-08-20T07:21:36;6.10;;;5.80;;
10299;SDS011;5195;48.562;9.192;2022-08-20T07:24:11;6.80;;;6.37;;
10299;SDS011;5195;48.562;9.192;2022-08-20T07:26:47;6.20;;;5.90;;
10299;SDS011;5195;48.562;9.192;2022-08-20T07:29:22;5.70;;;5.40;;
10299;SDS011;5195;48.562;9.192;2022-08-20T07:31:58;6.40;;;5.80;;
10299;SDS011;5195;48.562;9.192;2022-08-20T07:34:43;6.10;;;5.80;;
10299;SDS011;5195;48.562;9.192;2022-08-20T07:37:19;6.33;;;5.80;;
10299;SDS011;5195;48.562;9.192;2022-08-20T07:39:56;6.13;;;5.73;;
10299;SDS011;5195;48.562;9.192;2022-08-20T07:42:31;6.40;;;6.10;;
10299;SDS011;5195;48.562;9.192;2022-08-20T07:45:08;6.60;;;6.00;;
10299;SDS011;5195;48.562;9.192;2022-08-20T07:47:43;6.27;;;5.87;;
10299;SDS011;5195;48.562;9.192;2022-08-20T07:50:20;6.37;;;6.07;;
10299;SDS011;5195;48.562;9.192;2022-08-20T07:52:54;5.93;;;5.63;;
10299;SDS011;5195;48.562;9.192;2022-08-20T07:55:32;5.70;;;5.40;;
10299;SDS011;5195;48.562;9.192;2022-08-20T07:58:08;5.80;;;5.47;;
10299;SDS011;5195;48.562;9.192;2022-08-20T08:00:44;6.13;;;5.83;;
10299;SDS011;5195;48.562;9.192;2022-08-20T08:03:19;6.40;;;6.00;;
10299;SDS011;5195;48.562;9.192;2022-08-20T08:05:55;5.73;;;5.33;;
10299;SDS011;5195;48.562;9.192;2022-08-20T08:08:32;6.00;;;5.60;;
10299;SDS011;5195;48.562;9.192;2022-08-20T08:11:09;6.40;;;6.00;;
10299;SDS011;5195;48.562;9.192;2022-08-20T08:13:44;6.60;;;6.03;;
10299;SDS011;5195;48.562;9.192;2022-08-20T08:16:21;6.37;;;5.80;;
10299;SDS011;5195;48.562;9.192;2022-08-20T08:18:57;5.73;;;5.43;;
10299;SDS011;5195;48.562;9.192;2022-08-20T08:21:33;6.13;;;5.77;;
10299;SDS011;5195;48.562;9.192;2022-08-20T08:24:08;5.80;;;5.50;;
10299;SDS011;5195;48.562;9.192;2022-08-20T08:26:43;6.03;;;5.73;;
10299;SDS011;5195;48.562;9.192;2022-08-20T08:29:19;5.63;;;5.07;;
10299;SDS011;5195;48.562;9.192;2022-08-20T08:31:55;5.17;;;4.87;;
10299;SDS011;5195;48.562;9.192;2022-08-20T08:34:31;5.90;;;5.60;;
10299;SDS011;5195;48.562;9.192;2022-08-20T08:37:06;5.90;;;5.60;;
10299;SDS011;5195;48.562;9.192;2022-08-20T08:39:41;5.78;;;5.47;;
10299;SDS011;5195;48.562;9.192;2022-08-20T08:45:53;5.00;;;4.73;;
10299;SDS011;5195;48.562;9.192;2022-08-20T08:48:18;5.03;;;4.73;;
10299;SDS011;5195;48.562;9.192;2022-08-20T08:50:55;5.00;;;4.70;;
10299;SDS011;5195;48.562;9.192;2022-08-20T08:53:32;5.30;;;4.90;;
10299;SDS011;5195;48.562;9.192;2022-08-20T08:56:06;5.70;;;5.20;;
10299;SDS011;5195;48.562;9.192;2022-08-20T08:58:43;5.10;;;4.77;;
10299;SDS011;5195;48.562;9.192;2022-08-20T09:01:22;5.23;;;4.93;;
10299;SDS011;5195;48.562;9.192;2022-08-20T09:03:58;5.23;;;4.83;;
10299;SDS011;5195;48.562;9.192;2022-08-20T09:06:34;5.77;;;5.47;;
10299;SDS011;5195;48.562;9.192;2022-08-20T09:09:20;5.30;;;5.00;;
10299;SDS011;5195;48.562;9.192;2022-08-20T09:11:54;6.20;;;5.80;;
10299;SDS011;5195;48.562;9.192;2022-08-20T09:14:29;5.40;;;5.10;;
10299;SDS011;5195;48.562;9.192;2022-08-20T09:17:05;5.80;;;5.50;;
10299;SDS011;5195;48.562;9.192;2022-08-20T09:19:42;6.03;;;5.62;;
10299;SDS011;5195;48.562;9.192;2022-08-20T09:22:19;6.97;;;5.73;;
10299;SDS011;5195;48.562;9.192;2022-08-20T09:24:54;5.67;;;5.37;;
10299;SDS011;5195;48.562;9.192;2022-08-20T09:27:30;5.80;;;5.50;;
10299;SDS011;5195;48.562;9.192;2022-08-20T09:30:06;5.17;;;4.87;;
10299;SDS011;5195;48.562;9.192;2022-08-20T09:32:42;5.10;;;4.70;;
10299;SDS011;5195;48.562;9.192;2022-08-20T09:35:18;5.05;;;4.75;;
10299;SDS011;5195;48.562;9.192;2022-08-20T09:37:53;5.70;;;5.20;;
10299;SDS011;5195;48.562;9.192;2022-08-20T09:40:31;4.60;;;4.30;;
10299;SDS011;5195;48.562;9.192;2022-08-20T09:43:08;4.27;;;4.07;;
10299;SDS011;5195;48.562;9.192;2022-08-20T09:45:43;4.17;;;3.87;;
10299;SDS011;5195;48.562;9.192;2022-08-20T09:48:21;4.90;;;4.60;;
10299;SDS011;5195;48.562;9.192;2022-08-20T09:50:56;4.57;;;4.27;;
10299;SDS011;5195;48.562;9.192;2022-08-20T09:53:32;4.50;;;4.20;;
10299;SDS011;5195;48.562;9.192;2022-08-20T09:56:09;4.53;;;4.13;;
10299;SDS011;5195;48.562;9.192;2022-08-20T09:58:49;4.13;;;3.83;;
10299;SDS011;5195;48.562;9.192;2022-08-20T10:01:24;4.27;;;4.07;;
10299;SDS011;5195;48.562;9.192;2022-08-20T10:04:00;4.20;;;4.00;;
10299;SDS011;5195;48.562;9.192;2022-08-20T10:06:41;3.77;;;3.53;;
10299;SDS011;5195;48.562;9.192;2022-08-20T10:09:18;3.47;;;3.27;;
10299;SDS011;5195;48.562;9.192;2022-08-20T10:11:53;3.20;;;3.07;;
10299;SDS011;5195;48.562;9.192;2022-08-20T10:14:29;3.60;;;3.50;;
10299;SDS011;5195;48.562;9.192;2022-08-20T10:17:05;3.60;;;3.50;;
10299;SDS011;5195;48.562;9.192;2022-08-20T10:19:41;3.63;;;3.43;;
10299;SDS011;5195;48.562;9.192;2022-08-20T10:22:16;3.70;;;3.50;;
10299;SDS011;5195;48.562;9.192;2022-08-20T10:24:52;4.87;;;3.70;;
10299;SDS011;5195;48.562;9.192;2022-08-20T10:27:28;7.47;;;3.93;;
10299;SDS011;5195;48.562;9.192;2022-08-20T10:30:04;11.97;;;4.63;;
10299;SDS011;5195;48.562;9.192;2022-08-20T10:32:40;5.60;;;4.80;;
10299;SDS011;5195;48.562;9.192;2022-08-20T10:35:17;5.80;;;4.80;;
10299;SDS011;5195;48.562;9.192;2022-08-20T10:37:52;4.80;;;4.60;;
10299;SDS011;5195;48.562;9.192;2022-08-20T10:40:28;5.37;;;4.83;;
10299;SDS011;5195;48.562;9.192;2022-08-20T10:43:03;5.10;;;4.60;;
10299;SDS011;5195;48.562;9.192;2022-08-20T10:45:39;4.57;;;4.17;;
10299;SDS011;5195;48.562;9.192;2022-08-20T10:48:16;3.03;;;2.73;;
10299;SDS011;5195;48.562;9.192;2022-08-20T10:50:53;2.27;;;2.17;;
10299;SDS011;5195;48.562;9.192;2022-08-20T10:53:28;7.17;;;3.83;;
10299;SDS011;5195;48.562;9.192;2022-08-20T10:56:04;7.80;;;3.27;;
10299;SDS011;5195;48.562;9.192;2022-08-20T10:58:39;4.53;;;3.70;;
10299;SDS011;5195;48.562;9.192;2022-08-20T11:01:15;9.83;;;3.83;;
10299;SDS011;5195;48.562;9.192;2022-08-20T11:03:51;4.77;;;3.53;;
10299;SDS011;5195;48.562;9.192;2022-08-20T11:06:27;3.90;;;3.60;;
10299;SDS011;5195;48.562;9.192;2022-08-20T11:09:02;10.30;;;3.77;;
10299;SDS011;5195;48.562;9.192;2022-08-20T11:11:40;17.03;;;3.13;;
10299;SDS011;5195;48.562;9.192;2022-08-20T11:14:15;14.27;;;2.73;;
10299;SDS011;5195;48.562;9.192;2022-08-20T11:16:51;2.77;;;2.43;;
10299;SDS011;5195;48.562;9.192;2022-08-20T11:19:28;2.90;;;2.30;;
10299;SDS011;5195;48.562;9.192;2022-08-20T11:22:03;2.57;;;2.03;;
10299;SDS011;5195;48.562;9.192;2022-08-20T11:24:40;2.03;;;1.75;;
10299;SDS011;5195;48.562;9.192;2022-08-20T11:27:21;2.65;;;1.95;;
10299;SDS011;5195;48.562;9.192;2022-08-20T11:29:54;3.33;;;2.33;;
10299;SDS011;5195;48.562;9.192;2022-08-20T11:32:31;3.80;;;3.30;;
10299;SDS011;5195;48.562;9.192;2022-08-20T11:35:07;5.60;;;2.57;;
10299;SDS011;5195;48.562;9.192;2022-08-20T11:37:42;2.70;;;2.50;;
10299;SDS011;5195;48.562;9.192;2022-08-20T11:40:19;2.97;;;2.67;;
10299;SDS011;5195;48.562;9.192;2022-08-20T11:42:55;3.15;;;2.85;;
10299;SDS011;5195;48.562;9.192;2022-08-20T11:45:32;4.03;;;3.10;;
10299;SDS011;5195;48.562;9.192;2022-08-20T11:48:07;5.03;;;2.97;;
10299;SDS011;5195;48.562;9.192;2022-08-20T11:50:43;3.87;;;3.07;;
10299;SDS011;5195;48.562;9.192;2022-08-20T11:53:18;5.13;;;3.07;;
10299;SDS011;5195;48.562;9.192;2022-08-20T11:55:55;3.50;;;3.20;;
10299;SDS011;5195;48.562;9.192;2022-08-20T11:58:31;3.50;;;3.20;;
10299;SDS011;5195;48.562;9.192;2022-08-20T12:04:03;3.03;;;2.70;;
10299;SDS011;5195;48.562;9.192;2022-08-20T12:06:41;5.77;;;2.70;;
10299;SDS011;5195;48.562;9.192;2022-08-20T12:09:18;2.87;;;2.60;;
10299;SDS011;5195;48.562;9.192;2022-08-20T12:11:53;2.60;;;2.40;;
10299;SDS011;5195;48.562;9.192;2022-08-20T12:14:29;3.07;;;2.50;;
10299;SDS011;5195;48.562;9.192;2022-08-20T12:17:08;2.50;;;2.30;;
10299;SDS011;5195;48.562;9.192;2022-08-20T12:19:46;2.50;;;2.40;;
10299;SDS011;5195;48.562;9.192;2022-08-20T12:22:22;2.37;;;2.27;;
10299;SDS011;5195;48.562;9.192;2022-08-20T12:24:58;3.05;;;2.80;;
10299;SDS011;5195;48.562;9.192;2022-08-20T12:27:33;2.10;;;2.00;;
10299;SDS011;5195;48.562;9.192;2022-08-20T12:30:14;2.50;;;2.40;;
10299;SDS011;5195;48.562;9.192;2022-08-20T12:32:52;2.62;;;2.53;;
10299;SDS011;5195;48.562;9.192;2022-08-20T12:35:28;2.20;;;2.10;;
10299;SDS011;5195;48.562;9.192;2022-08-20T12:38:04;2.60;;;2.40;;
10299;SDS011;5195;48.562;9.192;2022-08-20T12:40:39;2.10;;;2.00;;
10299;SDS011;5195;48.562;9.192;2022-08-20T12:43:14;3.23;;;2.63;;
10299;SDS011;5195;48.562;9.192;2022-08-20T12:45:51;2.97;;;2.78;;
10299;SDS011;5195;48.562;9.192;2022-08-20T12:48:26;2.60;;;2.50;;
10299;SDS011;5195;48.562;9.192;2022-08-20T12:51:02;2.90;;;2.70;;
10299;SDS011;5195;48.562;9.192;2022-08-20T12:53:38;2.80;;;2.60;;
10299;SDS011;5195;48.562;9.192;2022-08-20T12:56:14;2.93;;;2.73;;
10299;SDS011;5195;48.562;9.192;2022-08-20T12:58:51;2.50;;;2.40;;
10299;SDS011;5195;48.562;9.192;2022-08-20T13:01:26;2.67;;;2.50;;
10299;SDS011;5195;48.562;9.192;2022-08-20T13:04:02;2.60;;;2.40;;
10299;SDS011;5195;48.562;9.192;2022-08-20T13:06:38;3.10;;;2.90;;
10299;SDS011;5195;48.562;9.192;2022-08-20T13:09:14;3.10;;;2.80;;
10299;SDS011;5195;48.562;9.192;2022-08-20T13:11:51;3.30;;;3.10;;
10299;SDS011;5195;48.562;9.192;2022-08-20T13:14:26;3.17;;;2.90;;
10299;SDS011;5195;48.562;9.192;2022-08-20T13:17:03;3.00;;;2.80;;
10299;SDS011;5195;48.562;9.192;2022-08-20T13:19:40;3.13;;;2.93;;
10299;SDS011;5195;48.562;9.192;2022-08-20T13:22:16;3.10;;;2.90;;
10299;SDS011;5195;48.562;9.192;2022-08-20T13:24:53;2.67;;;2.47;;
10299;SDS011;5195;48.562;9.192;2022-08-20T13:27:30;2.43;;;2.33;;
10299;SDS011;5195;48.562;9.192;2022-08-20T13:30:06;2.57;;;2.47;;
10299;SDS011;5195;48.562;9.192;2022-08-20T13:32:42;2.23;;;2.00;;
10299;SDS011;5195;48.562;9.192;2022-08-20T13:35:18;2.60;;;1.70;;
10299;SDS011;5195;48.562;9.192;2022-08-20T13:37:54;1.67;;;1.67;;
10299;SDS011;5195;48.562;9.192;2022-08-20T13:40:29;2.63;;;1.90;;
10299;SDS011;5195;48.562;9.192;2022-08-20T13:43:05;2.13;;;1.93;;
10299;SDS011;5195;48.562;9.192;2022-08-20T13:45:40;1.87;;;1.40;;
10299;SDS011;5195;48.562;9.192;2022-08-20T13:48:17;1.50;;;1.40;;
10299;SDS011;5195;48.562;9.192;2022-08-20T13:50:53;1.60;;;1.50;;
10299;SDS011;5195;48.562;9.192;2022-08-20T13:53:28;1.40;;;1.30;;
10299;SDS011;5195;48.562;9.192;2022-08-20T13:56:04;1.40;;;1.37;;
10299;SDS011;5195;48.562;9.192;2022-08-20T13:58:39;1.10;;;1.10;;
10299;SDS011;5195;48.562;9.192;2022-08-20T14:01:16;1.13;;;1.13;;
10299;SDS011;5195;48.562;9.192;2022-08-20T14:03:52;1.37;;;1.30;;
10299;SDS011;5195;48.562;9.192;2022-08-20T14:06:28;1.13;;;1.13;;
10299;SDS011;5195;48.562;9.192;2022-08-20T14:09:04;1.33;;;1.20;;
10299;SDS011;5195;48.562;9.192;2022-08-20T14:11:39;1.20;;;1.10;;
10299;SDS011;5195;48.562;9.192;2022-08-20T14:14:15;0.93;;;0.93;;
10299;SDS011;5195;48.562;9.192;2022-08-20T14:16:51;1.10;;;1.10;;
10299;SDS011;5195;48.562;9.192;2022-08-20T14:19:26;1.83;;;1.23;;
10299;SDS011;5195;48.562;9.192;2022-08-20T14:22:03;1.50;;;1.30;;
10299;SDS011;5195;48.562;9.192;2022-08-20T14:24:39;1.30;;;1.30;;
10299;SDS011;5195;48.562;9.192;2022-08-20T14:27:16;1.57;;;1.20;;
10299;SDS011;5195;48.562;9.192;2022-08-20T14:29:50;1.37;;;1.30;;
10299;SDS011;5195;48.562;9.192;2022-08-20T14:32:26;2.03;;;1.40;;
10299;SDS011;5195;48.562;9.192;2022-08-20T14:35:03;1.10;;;1.10;;
10299;SDS011;5195;48.562;9.192;2022-08-20T14:37:39;1.40;;;1.40;;
10299;SDS011;5195;48.562;9.192;2022-08-20T14:40:15;1.63;;;1.40;;
10299;SDS011;5195;48.562;9.192;2022-08-20T14:42:49;0.97;;;0.97;;
10299;SDS011;5195;48.562;9.192;2022-08-20T14:45:25;1.30;;;1.20;;
10299;SDS011;5195;48.562;9.192;2022-08-20T14:48:01;1.43;;;1.43;;
10299;SDS011;5195;48.562;9.192;2022-08-20T14:50:37;1.07;;;1.07;;
10299;SDS011;5195;48.562;9.192;2022-08-20T14:53:12;1.50;;;1.40;;
10299;SDS011;5195;48.562;9.192;2022-08-20T14:55:48;1.47;;;1.37;;
10299;SDS011;5195;48.562;9.192;2022-08-20T14:58:23;1.40;;;1.30;;
10299;SDS011;5195;48.562;9.192;2022-08-20T15:01:00;1.30;;;1.30;;
10299;SDS011;5195;48.562;9.192;2022-08-20T15:03:35;1.40;;;1.30;;
10299;SDS011;5195;48.562;9.192;2022-08-20T15:06:11;1.33;;;1.30;;
10299;SDS011;5195;48.562;9.192;2022-08-20T15:08:46;1.40;;;1.40;;
10299;SDS011;5195;48.562;9.192;2022-08-20T15:11:22;1.33;;;1.23;;
10299;SDS011;5195;48.562;9.192;2022-08-20T15:13:57;1.62;;;1.52;;
10299;SDS011;5195;48.562;9.192;2022-08-20T15:16:35;1.13;;;1.13;;
10299;SDS011;5195;48.562;9.192;2022-08-20T15:19:11;1.50;;;1.40;;
10299;SDS011;5195;48.562;9.192;2022-08-20T15:21:49;1.20;;;1.20;;
10299;SDS011;5195;48.562;9.192;2022-08-20T15:24:24;1.30;;;1.30;;
10299;SDS011;5195;48.562;9.192;2022-08-20T15:27:11;1.10;;;1.10;;
10299;SDS011;5195;48.562;9.192;2022-08-20T15:29:45;1.10;;;1.10;;
10299;SDS011;5195;48.562;9.192;2022-08-20T15:32:21;1.40;;;1.20;;
10299;SDS011;5195;48.562;9.192;2022-08-20T15:34:57;1.20;;;1.20;;
10299;SDS011;5195;48.562;9.192;2022-08-20T15:37:37;1.40;;;1.30;;
10299;SDS011;5195;48.562;9.192;2022-08-20T15:40:10;1.27;;;1.27;;
10299;SDS011;5195;48.562;9.192;2022-08-20T15:42:47;1.30;;;1.30;;
10299;SDS011;5195;48.562;9.192;2022-08-20T15:45:23;1.17;;;1.17;;
10299;SDS011;5195;48.562;9.192;2022-08-20T15:48:02;1.30;;;1.30;;
10299;SDS011;5195;48.562;9.192;2022-08-20T15:59:34;1.60;;;1.50;;
10299;SDS011;5195;48.562;9.192;2022-08-20T16:05:23;1.10;;;1.10;;
10299;SDS011;5195;48.562;9.192;2022-08-20T16:10:57;1.23;;;1.17;;
10299;SDS011;5195;48.562;9.192;2022-08-20T16:13:36;1.50;;;1.20;;
10299;SDS011;5195;48.562;9.192;2022-08-20T16:16:40;1.17;;;1.10;;
10299;SDS011;5195;48.562;9.192;2022-08-20T16:19:23;1.10;;;1.10;;
10299;SDS011;5195;48.562;9.192;2022-08-20T16:21:56;1.10;;;1.10;;
10299;SDS011;5195;48.562;9.192;2022-08-20T16:24:31;1.10;;;1.00;;
10299;SDS011;5195;48.562;9.192;2022-08-20T16:27:16;1.30;;;1.10;;